Time;durP1;ratioP1;P1;durP2;ratioP2;P2;SDS_P1;SDS_P2;PMS_P1;PMS_P2;Temp;Humidity;BMP_temperature;BMP_pressure;BME280_temperature;BME280_humidity;BME280_pressure;Samples;Min_cycle;Max_cycle;Signal;HPM_P1;HPM_P2
2021/01/12 00:00:32;;;;;;;7.77;4.93;;;-4.50;99.90;;;;;;2074050;28;20220;-58
2021/01/12 00:01:47;;;;;;;9.33;4.90;;;-4.50;99.90;;;;;;2074043;28;20181;-58
2021/01/12 00:02:51;;;;;;;8.05;4.95;;;-4.60;99.90;;;;;;2074184;28;20169;-57
2021/01/12 00:03:53;;;;;;;9.90;5.70;;;-4.60;99.90;;;;;;2074070;28;20271;-58
2021/01/12 00:04:54;;;;;;;7.88;4.85;;;-4.60;99.90;;;;;;2074018;28;20185;-57
2021/01/12 00:05:55;;;;;;;7.77;4.97;;;-4.60;99.90;;;;;;2074178;28;20235;-58
2021/01/12 00:06:55;;;;;;;9.50;5.47;;;-4.50;99.90;;;;;;2074170;28;20188;-58
2021/01/12 00:07:56;;;;;;;8.30;5.40;;;-4.50;99.90;;;;;;2074130;28;20181;-55
2021/01/12 00:08:57;;;;;;;8.70;5.10;;;-4.50;99.90;;;;;;2073975;28;20582;-57
2021/01/12 00:09:58;;;;;;;8.73;5.13;;;-4.60;99.90;;;;;;2073940;28;20189;-57
2021/01/12 00:10:58;;;;;;;8.47;4.87;;;-4.60;99.90;;;;;;2073826;28;20186;-57
2021/01/12 00:11:59;;;;;;;8.53;5.73;;;-4.70;99.90;;;;;;2074152;28;20656;-57
2021/01/12 00:13:00;;;;;;;10.20;5.60;;;-4.70;99.90;;;;;;2074129;28;20177;-56
2021/01/12 00:14:01;;;;;;;12.47;6.77;;;-4.70;99.90;;;;;;2073920;28;20289;-54
2021/01/12 00:15:04;;;;;;;8.80;5.00;;;-4.70;99.90;;;;;;2073952;28;20558;-57
2021/01/12 00:16:05;;;;;;;8.68;5.55;;;-4.80;99.90;;;;;;2073873;28;20711;-57
2021/01/12 00:17:07;;;;;;;9.98;5.70;;;-4.80;99.90;;;;;;2074013;28;20189;-55
2021/01/12 00:18:08;;;;;;;9.88;5.47;;;-4.90;99.90;;;;;;2073990;28;20189;-56
2021/01/12 00:19:08;;;;;;;8.67;4.97;;;-4.90;99.90;;;;;;2073774;28;20220;-58
2021/01/12 00:20:11;;;;;;;9.70;5.37;;;-4.90;99.90;;;;;;2073923;28;20185;-57
2021/01/12 00:21:12;;;;;;;8.75;5.30;;;-4.90;99.90;;;;;;2073416;28;20652;-58
2021/01/12 00:22:15;;;;;;;8.87;5.17;;;-4.80;99.90;;;;;;2073840;28;20196;-58
2021/01/12 00:23:16;;;;;;;9.73;5.32;;;-4.80;99.90;;;;;;2073889;28;20189;-57
2021/01/12 00:24:17;;;;;;;7.53;4.80;;;-4.80;99.90;;;;;;2073869;28;20212;-59
2021/01/12 00:25:18;;;;;;;8.85;5.05;;;-4.80;99.90;;;;;;2073761;28;20181;-58
2021/01/12 00:26:19;;;;;;;9.97;5.13;;;-4.70;99.90;;;;;;2073783;28;20208;-57
2021/01/12 00:27:21;;;;;;;8.97;4.93;;;-4.70;99.90;;;;;;2073809;28;20192;-59
2021/01/12 00:28:22;;;;;;;8.48;5.25;;;-4.60;99.90;;;;;;2073786;28;20186;-56
2021/01/12 00:29:22;;;;;;;7.90;4.87;;;-4.60;99.90;;;;;;2073641;28;20272;-58
2021/01/12 00:30:23;;;;;;;7.27;4.47;;;-4.60;99.90;;;;;;2073817;28;20189;-57
2021/01/12 00:31:24;;;;;;;6.93;4.30;;;-4.60;99.90;;;;;;2073582;28;20205;-56
2021/01/12 00:32:27;;;;;;;8.03;4.20;;;-4.50;99.90;;;;;;2073717;28;20795;-55
2021/01/12 00:33:28;;;;;;;8.93;4.60;;;-4.40;99.90;;;;;;2073589;28;20703;-57
2021/01/12 00:34:29;;;;;;;7.43;4.90;;;-4.40;99.90;;;;;;2073690;28;20178;-57
2021/01/12 00:35:30;;;;;;;8.20;4.50;;;-4.40;99.90;;;;;;2073549;28;20174;-57
2021/01/12 00:36:30;;;;;;;7.20;4.60;;;-4.40;99.90;;;;;;2073761;28;20186;-54
2021/01/12 00:37:31;;;;;;;8.23;4.90;;;-4.40;99.90;;;;;;2073566;28;20177;-57
2021/01/12 00:38:32;;;;;;;7.60;4.90;;;-4.40;99.90;;;;;;2073751;28;20640;-55
2021/01/12 00:39:33;;;;;;;8.52;4.85;;;-4.50;99.90;;;;;;2073680;28;20204;-56
2021/01/12 00:40:40;;;;;;;6.90;4.70;;;-4.50;99.90;;;;;;2073781;28;20220;-59
2021/01/12 00:41:40;;;;;;;19.15;9.18;;;-4.50;99.90;;;;;;2073426;28;20228;-58
2021/01/12 00:42:41;;;;;;;20.07;9.80;;;-4.50;99.90;;;;;;2073550;28;20675;-58
2021/01/12 00:43:42;;;;;;;19.73;10.23;;;-4.50;99.90;;;;;;2073491;28;20231;-57
2021/01/12 00:44:42;;;;;;;19.37;10.37;;;-4.50;99.90;;;;;;2073775;28;20197;-55
2021/01/12 00:45:43;;;;;;;19.40;9.60;;;-4.50;99.90;;;;;;2073653;28;20216;-57
2021/01/12 00:46:46;;;;;;;16.23;8.80;;;-4.50;99.90;;;;;;2073677;28;20605;-58
2021/01/12 00:47:46;;;;;;;12.57;6.53;;;-4.50;99.90;;;;;;2073000;28;20186;-55
2021/01/12 00:48:47;;;;;;;9.20;5.67;;;-4.50;99.90;;;;;;2073517;28;20652;-56
2021/01/12 00:49:48;;;;;;;9.17;5.57;;;-4.60;99.90;;;;;;2073585;28;20178;-57
2021/01/12 00:50:48;;;;;;;10.60;5.87;;;-4.50;99.90;;;;;;2073596;28;20177;-57
2021/01/12 00:51:49;;;;;;;9.03;5.47;;;-4.50;99.90;;;;;;2073468;28;20178;-56
2021/01/12 00:52:50;;;;;;;9.80;5.70;;;-4.50;99.90;;;;;;2073709;28;20174;-57
2021/01/12 00:53:51;;;;;;;8.67;5.20;;;-4.50;99.90;;;;;;2073378;28;20234;-56
2021/01/12 00:54:51;;;;;;;8.50;5.13;;;-4.50;99.90;;;;;;2073586;28;20206;-57
2021/01/12 00:55:52;;;;;;;7.40;4.77;;;-4.60;99.90;;;;;;2073639;28;20205;-56
2021/01/12 00:56:54;;;;;;;9.73;5.37;;;-4.60;99.90;;;;;;2073684;28;20831;-56
2021/01/12 00:57:55;;;;;;;8.93;5.40;;;-4.60;99.90;;;;;;2073168;28;20228;-55
2021/01/12 00:58:55;;;;;;;7.17;4.50;;;-4.50;99.90;;;;;;2072789;28;20201;-57
2021/01/12 00:59:56;;;;;;;7.70;4.70;;;-4.50;99.90;;;;;;2073536;28;20171;-58
2021/01/12 01:00:57;;;;;;;9.23;5.50;;;-4.50;99.90;;;;;;2073314;28;20700;-58
2021/01/12 01:02:03;;;;;;;9.23;5.40;;;-4.50;99.90;;;;;;2073667;28;20178;-56
2021/01/12 01:03:04;;;;;;;8.50;5.13;;;-4.60;99.90;;;;;;2073470;28;20185;-58
2021/01/12 01:04:08;;;;;;;9.37;5.77;;;-4.70;99.90;;;;;;2073463;28;20209;-57
2021/01/12 01:05:10;;;;;;;9.07;5.15;;;-4.70;99.90;;;;;;2073366;28;20185;-56
2021/01/12 01:06:12;;;;;;;8.52;5.22;;;-4.80;99.90;;;;;;2074773;28;20677;-56
2021/01/12 01:07:12;;;;;;;9.07;4.85;;;-4.80;99.90;;;;;;2081649;28;20627;-55
2021/01/12 01:08:13;;;;;;;9.20;5.30;;;-4.80;99.90;;;;;;2081681;28;20189;-56
2021/01/12 01:09:14;;;;;;;8.97;6.20;;;-4.80;99.90;;;;;;2081523;28;20200;-57
2021/01/12 01:10:14;;;;;;;7.90;5.20;;;-4.80;99.90;;;;;;2081573;28;20228;-57
2021/01/12 01:11:16;;;;;;;9.73;5.57;;;-4.90;99.90;;;;;;2081486;28;20189;-58
2021/01/12 01:12:16;;;;;;;9.85;5.53;;;-4.90;99.90;;;;;;2082236;28;20188;-58
2021/01/12 01:13:17;;;;;;;12.87;6.73;;;-5.00;99.90;;;;;;2081637;28;20184;-57
2021/01/12 01:14:19;;;;;;;10.70;6.03;;;-5.10;99.90;;;;;;2081740;28;20228;-57
2021/01/12 01:15:20;;;;;;;11.35;5.85;;;-5.20;99.90;;;;;;2080866;28;20224;-57
2021/01/12 01:16:33;;;;;;;11.13;6.00;;;-5.30;99.90;;;;;;2081033;28;20576;-55
2021/01/12 01:17:35;;;;;;;9.40;5.30;;;-5.40;99.90;;;;;;2081512;28;20535;-57
2021/01/12 01:18:36;;;;;;;9.75;5.57;;;-5.40;99.90;;;;;;2081810;28;20184;-54
2021/01/12 01:19:37;;;;;;;11.52;6.20;;;-5.30;99.90;;;;;;2081455;28;20190;-55
2021/01/12 01:20:37;;;;;;;10.20;5.40;;;-5.40;99.90;;;;;;2081510;28;20193;-58
2021/01/12 01:21:38;;;;;;;11.07;5.47;;;-5.40;99.90;;;;;;2081413;28;20181;-57
2021/01/12 01:22:39;;;;;;;11.38;5.45;;;-5.30;99.90;;;;;;2081675;28;20185;-57
2021/01/12 01:23:40;;;;;;;11.27;6.03;;;-5.30;99.90;;;;;;2081504;28;20272;-58
2021/01/12 01:24:41;;;;;;;12.93;6.25;;;-5.30;99.90;;;;;;2081545;28;20849;-57
2021/01/12 01:25:41;;;;;;;8.93;5.67;;;-5.30;99.90;;;;;;2081469;28;20260;-58
2021/01/12 01:26:42;;;;;;;8.03;4.37;;;-5.40;99.90;;;;;;2081458;28;20264;-55
2021/01/12 01:27:43;;;;;;;9.03;5.30;;;-5.40;99.90;;;;;;2081490;28;20211;-58
2021/01/12 01:28:44;;;;;;;9.63;5.50;;;-5.40;99.90;;;;;;2081615;28;20173;-57
2021/01/12 01:29:44;;;;;;;9.23;5.30;;;-5.40;99.90;;;;;;2081478;28;20616;-57
2021/01/12 01:30:45;;;;;;;10.30;5.97;;;-5.30;99.90;;;;;;2081544;28;20212;-57
2021/01/12 01:31:46;;;;;;;9.45;5.65;;;-5.30;99.90;;;;;;2081192;28;20181;-58
2021/01/12 01:32:47;;;;;;;10.97;6.33;;;-5.40;99.90;;;;;;2081487;28;20208;-57
2021/01/12 01:33:48;;;;;;;9.97;6.03;;;-5.40;99.90;;;;;;2081380;28;20739;-58
2021/01/12 01:34:49;;;;;;;9.52;5.70;;;-5.40;99.90;;;;;;2081588;28;20192;-54
2021/01/12 01:35:50;;;;;;;9.60;6.00;;;-5.40;99.90;;;;;;2081670;28;20291;-56
2021/01/12 01:36:51;;;;;;;11.27;6.23;;;-5.50;99.90;;;;;;2081621;28;20276;-57
2021/01/12 01:37:51;;;;;;;11.23;5.73;;;-5.50;99.90;;;;;;2081290;28;20189;-62
2021/01/12 01:38:52;;;;;;;10.90;5.88;;;-5.50;99.90;;;;;;2081503;28;20212;-56
2021/01/12 01:39:53;;;;;;;12.20;6.13;;;-5.50;99.90;;;;;;2081393;28;20189;-58
2021/01/12 01:41:00;;;;;;;9.40;5.87;;;-5.50;99.90;;;;;;2081269;28;20650;-57
2021/01/12 01:42:02;;;;;;;10.00;5.35;;;-5.50;99.90;;;;;;2081373;28;20200;-60
2021/01/12 01:43:03;;;;;;;8.98;5.35;;;-5.50;99.90;;;;;;2081321;28;20263;-56
2021/01/12 01:44:08;;;;;;;8.90;5.68;;;-5.50;99.90;;;;;;2081208;28;20213;-57
2021/01/12 01:45:09;;;;;;;12.00;5.97;;;-5.50;99.90;;;;;;2081376;28;20713;-58
2021/01/12 01:46:11;;;;;;;9.15;5.38;;;-5.50;99.90;;;;;;2081406;28;20196;-57
2021/01/12 01:47:12;;;;;;;9.75;5.40;;;-5.50;99.90;;;;;;2098772;22;20234;-68
2021/01/12 01:48:12;;;;;;;8.67;4.77;;;-5.50;99.90;;;;;;2089204;28;20200;-68
2021/01/12 01:49:13;;;;;;;8.80;5.63;;;-5.50;99.90;;;;;;2089118;28;20544;-69
2021/01/12 01:50:19;;;;;;;9.80;4.77;;;-5.50;99.90;;;;;;2089476;28;20181;-69
2021/01/12 01:51:20;;;;;;;10.25;5.30;;;-5.50;99.90;;;;;;2089384;28;20252;-69
2021/01/12 01:52:21;;;;;;;8.83;5.20;;;-5.50;99.90;;;;;;2089843;28;20183;-69
2021/01/12 01:53:21;;;;;;;10.30;5.70;;;-5.60;99.90;;;;;;2089010;28;20187;-69
2021/01/12 01:54:23;;;;;;;11.67;5.93;;;-5.60;99.90;;;;;;2089416;28;20203;-69
2021/01/12 01:55:24;;;;;;;10.65;5.45;;;-5.60;99.90;;;;;;2089857;28;20212;-69
2021/01/12 01:56:28;;;;;;;9.70;5.68;;;-5.60;99.90;;;;;;2089953;28;20168;-69
2021/01/12 01:57:29;;;;;;;10.00;6.15;;;-5.50;99.90;;;;;;2089770;28;20195;-68
2021/01/12 01:58:30;;;;;;;8.10;4.93;;;-5.60;99.90;;;;;;2089887;28;20185;-68
2021/01/12 01:59:31;;;;;;;9.23;5.28;;;-5.60;99.90;;;;;;2088230;28;20188;-69
2021/01/12 02:00:36;;;;;;;9.97;5.33;;;-5.60;99.90;;;;;;2089338;28;20192;-69
2021/01/12 02:01:37;;;;;;;9.27;5.75;;;-5.60;99.90;;;;;;2088875;28;20167;-69
2021/01/12 02:03:07;;;;;;;11.00;5.77;;;-5.60;99.90;;;;;;2089402;28;20394;-69
2021/01/12 02:04:24;;;;;;;9.88;5.35;;;-5.50;99.90;;;;;;2088851;28;20859;-68
2021/01/12 02:05:32;;;;;;;8.63;4.50;;;-5.50;99.90;;;;;;2089351;28;20173;-69
2021/01/12 02:06:36;;;;;;;10.15;5.45;;;-5.50;99.90;;;;;;2089100;28;20210;-69
2021/01/12 02:07:42;;;;;;;7.70;4.63;;;-5.50;99.90;;;;;;2088988;28;20237;-69
2021/01/12 02:09:11;;;;;;;11.10;5.85;;;-5.50;99.90;;;;;;2081623;28;20264;-69
2021/01/12 02:10:17;;;;;;;7.25;4.60;;;-5.60;99.90;;;;;;2085169;28;20249;-68
2021/01/12 02:11:21;;;;;;;8.05;5.18;;;-5.60;99.90;;;;;;2081337;28;20165;-69
2021/01/12 02:12:33;;;;;;;10.02;5.28;;;-5.60;99.90;;;;;;2089084;28;20459;-69
2021/01/12 02:13:35;;;;;;;8.20;4.88;;;-5.60;99.90;;;;;;2082551;28;20200;-69
2021/01/12 02:14:39;;;;;;;8.63;4.90;;;-5.50;99.90;;;;;;2080704;28;20187;-69
2021/01/12 02:15:42;;;;;;;11.93;5.72;;;-5.50;99.90;;;;;;2089200;28;20527;-68
2021/01/12 02:16:45;;;;;;;10.45;5.53;;;-5.60;99.90;;;;;;2089250;28;20621;-69
2021/01/12 02:17:48;;;;;;;9.95;5.32;;;-5.60;99.90;;;;;;2089000;28;20183;-68
2021/01/12 02:18:52;;;;;;;8.88;5.10;;;-5.60;99.90;;;;;;2089013;28;20546;-68
2021/01/12 02:19:53;;;;;;;8.15;4.55;;;-5.60;99.90;;;;;;2088816;28;20195;-69
2021/01/12 02:20:54;;;;;;;11.88;5.50;;;-5.60;99.90;;;;;;2088668;28;20188;-69
2021/01/12 02:22:03;;;;;;;6.97;4.70;;;-5.60;99.90;;;;;;2089048;28;20244;-69
2021/01/12 02:23:06;;;;;;;9.13;5.30;;;-5.60;99.90;;;;;;2088954;28;20268;-69
2021/01/12 02:24:09;;;;;;;8.70;4.70;;;-5.60;99.90;;;;;;2072755;28;20253;-69
2021/01/12 02:25:10;;;;;;;9.13;4.95;;;-5.60;99.90;;;;;;2080911;28;20211;-69
2021/01/12 02:26:11;;;;;;;7.15;4.38;;;-5.50;99.90;;;;;;2088869;28;20691;-69
2021/01/12 02:27:11;;;;;;;7.37;4.40;;;-5.50;99.90;;;;;;2088829;28;20242;-69
2021/01/12 02:28:17;;;;;;;7.50;4.07;;;-5.30;99.90;;;;;;2089652;28;20643;-70
2021/01/12 02:29:18;;;;;;;7.55;4.18;;;-5.20;99.90;;;;;;2089324;28;20580;-70
2021/01/12 02:30:22;;;;;;;6.77;3.90;;;-5.20;99.90;;;;;;2089385;28;20176;-69
2021/01/12 02:31:23;;;;;;;6.85;3.90;;;-5.10;99.90;;;;;;2089383;28;20267;-69
2021/01/12 02:32:23;;;;;;;5.80;3.77;;;-5.10;99.90;;;;;;2089027;28;20482;-69
2021/01/12 02:33:24;;;;;;;6.43;3.73;;;-4.90;99.90;;;;;;2088834;28;20176;-69
2021/01/12 02:34:27;;;;;;;8.27;4.63;;;-4.80;99.90;;;;;;2088976;28;20175;-69
2021/01/12 02:35:29;;;;;;;7.63;4.50;;;-4.80;99.90;;;;;;2088830;28;20646;-71
2021/01/12 02:36:32;;;;;;;6.75;3.60;;;-4.80;99.90;;;;;;2088783;28;20590;-69
2021/01/12 02:37:33;;;;;;;6.80;3.78;;;-4.70;99.90;;;;;;2089408;28;20560;-69
2021/01/12 02:38:36;;;;;;;7.68;4.60;;;-4.70;99.90;;;;;;2088881;28;20203;-69
2021/01/12 02:39:36;;;;;;;5.80;3.70;;;-4.60;99.90;;;;;;2088682;28;20585;-69
2021/01/12 02:40:37;;;;;;;8.53;3.90;;;-4.70;99.90;;;;;;2089555;28;20235;-69
2021/01/12 02:41:38;;;;;;;6.00;3.60;;;-4.70;99.90;;;;;;2089126;28;20188;-69
2021/01/12 02:42:42;;;;;;;5.45;3.60;;;-4.60;99.90;;;;;;2088927;28;20310;-69
2021/01/12 02:43:45;;;;;;;5.13;3.13;;;-4.60;99.90;;;;;;2088883;28;20690;-69
2021/01/12 02:44:46;;;;;;;4.53;2.90;;;-4.40;99.90;;;;;;2088855;28;20208;-69
2021/01/12 02:45:47;;;;;;;5.05;2.97;;;-4.20;99.90;;;;;;2089037;28;20462;-69
2021/01/12 02:46:49;;;;;;;9.20;4.07;;;-3.90;99.90;;;;;;2089127;28;20233;-69
2021/01/12 02:47:49;;;;;;;7.70;4.30;;;-3.80;99.90;;;;;;2088854;28;20212;-69
2021/01/12 02:48:51;;;;;;;5.83;3.70;;;-3.80;99.90;;;;;;2088706;28;20185;-69
2021/01/12 02:49:51;;;;;;;6.88;4.20;;;-3.90;99.90;;;;;;2088773;28;20239;-69
2021/01/12 02:50:52;;;;;;;5.80;3.53;;;-3.90;99.90;;;;;;2088749;28;20207;-70
2021/01/12 02:51:53;;;;;;;7.70;4.47;;;-3.90;99.90;;;;;;2089232;28;20170;-69
2021/01/12 02:52:53;;;;;;;6.37;3.93;;;-3.90;99.90;;;;;;2089492;28;20195;-69
2021/01/12 02:53:54;;;;;;;5.87;3.23;;;-3.90;99.90;;;;;;2089322;28;20188;-69
2021/01/12 02:54:55;;;;;;;4.67;3.23;;;-3.80;99.90;;;;;;2089382;28;20177;-69
2021/01/12 02:55:56;;;;;;;6.13;3.53;;;-3.80;99.90;;;;;;2089278;28;20176;-69
2021/01/12 02:56:56;;;;;;;5.60;3.40;;;-3.70;99.90;;;;;;2089311;28;20684;-69
2021/01/12 02:57:57;;;;;;;5.53;3.50;;;-3.70;99.90;;;;;;2089381;28;20535;-69
2021/01/12 02:58:58;;;;;;;4.63;2.90;;;-3.70;99.90;;;;;;2089465;28;20179;-69
2021/01/12 02:59:58;;;;;;;5.70;3.17;;;-3.60;99.90;;;;;;2089313;28;20208;-69
2021/01/12 03:00:59;;;;;;;5.20;3.20;;;-3.60;99.90;;;;;;2089226;28;20175;-71
2021/01/12 03:02:00;;;;;;;4.90;3.00;;;-3.50;99.90;;;;;;2096784;28;20308;-69
2021/01/12 03:03:01;;;;;;;5.77;3.40;;;-3.40;99.90;;;;;;2097020;28;20191;-69
2021/01/12 03:04:01;;;;;;;4.80;3.30;;;-3.40;99.90;;;;;;2089293;28;20187;-69
2021/01/12 03:05:07;;;;;;;5.07;3.27;;;-3.30;99.90;;;;;;2089379;28;20186;-68
2021/01/12 03:06:08;;;;;;;5.93;3.50;;;-3.30;99.90;;;;;;2079053;28;20176;-67
2021/01/12 03:07:09;;;;;;;5.50;3.33;;;-3.30;99.90;;;;;;2072287;28;20270;-68
2021/01/12 03:08:11;;;;;;;5.80;3.30;;;-3.20;99.90;;;;;;2072034;28;20431;-68
2021/01/12 03:09:12;;;;;;;5.30;3.60;;;-3.30;99.90;;;;;;2072241;28;20235;-68
2021/01/12 03:10:13;;;;;;;4.93;3.00;;;-3.30;99.90;;;;;;2072139;28;20202;-68
2021/01/12 03:11:13;;;;;;;6.00;3.07;;;-3.20;99.90;;;;;;2071995;28;20170;-68
2021/01/12 03:12:14;;;;;;;4.40;2.80;;;-3.10;99.90;;;;;;2072838;28;20185;-68
2021/01/12 03:13:15;;;;;;;5.10;3.20;;;-3.00;99.90;;;;;;2080319;28;20519;-68
2021/01/12 03:14:16;;;;;;;5.07;2.92;;;-3.00;99.90;;;;;;2072293;28;20243;-68
2021/01/12 03:15:17;;;;;;;4.37;2.90;;;-3.00;99.90;;;;;;2072286;28;20269;-68
2021/01/12 03:16:17;;;;;;;4.30;3.07;;;-2.80;99.90;;;;;;2072963;28;20228;-68
2021/01/12 03:17:19;;;;;;;4.43;3.00;;;-2.80;99.90;;;;;;2072804;28;20277;-68
2021/01/12 03:18:20;;;;;;;5.25;3.40;;;-2.70;99.90;;;;;;2072165;28;20291;-68
2021/01/12 03:19:21;;;;;;;4.00;2.60;;;-2.70;99.90;;;;;;2072312;28;20240;-68
2021/01/12 03:20:21;;;;;;;4.17;2.83;;;-2.70;99.90;;;;;;2072968;28;20175;-69
2021/01/12 03:21:22;;;;;;;5.10;2.80;;;-2.60;99.90;;;;;;2072810;28;20799;-70
2021/01/12 03:22:23;;;;;;;5.03;3.47;;;-2.60;99.90;;;;;;2073011;28;20528;-69
2021/01/12 03:23:23;;;;;;;5.03;2.97;;;-2.60;99.90;;;;;;2072929;28;20182;-69
2021/01/12 03:24:24;;;;;;;6.97;4.37;;;-2.60;99.90;;;;;;2072948;28;20205;-69
2021/01/12 03:25:25;;;;;;;8.13;4.87;;;-2.50;99.90;;;;;;2072881;28;20655;-69
2021/01/12 03:26:26;;;;;;;6.20;3.30;;;-2.60;99.90;;;;;;2064154;28;20211;-68
2021/01/12 03:27:26;;;;;;;7.70;4.60;;;-2.70;99.90;;;;;;2063985;28;20208;-69
2021/01/12 03:28:27;;;;;;;8.20;5.40;;;-2.80;99.90;;;;;;2072829;28;20250;-68
2021/01/12 03:29:28;;;;;;;9.47;6.03;;;-2.80;99.90;;;;;;2072545;28;20234;-68
2021/01/12 03:30:29;;;;;;;8.27;5.40;;;-2.80;99.90;;;;;;2072261;28;20231;-69
2021/01/12 03:31:29;;;;;;;9.00;6.07;;;-2.90;99.90;;;;;;2072084;28;20253;-69
2021/01/12 03:32:30;;;;;;;8.70;5.53;;;-2.90;99.90;;;;;;2072913;28;20199;-69
2021/01/12 03:33:31;;;;;;;10.93;6.00;;;-3.00;99.90;;;;;;2072947;28;20180;-69
2021/01/12 03:34:32;;;;;;;8.90;5.60;;;-3.00;99.90;;;;;;2072768;28;20166;-69
2021/01/12 03:35:32;;;;;;;10.10;5.83;;;-3.20;99.90;;;;;;2072254;28;20201;-68
2021/01/12 03:36:33;;;;;;;10.73;5.43;;;-3.20;99.90;;;;;;2064374;28;20621;-68
2021/01/12 03:37:34;;;;;;;9.17;5.17;;;-3.20;99.90;;;;;;2072179;28;20198;-69
2021/01/12 03:38:34;;;;;;;5.90;4.27;;;-3.20;99.90;;;;;;2073180;28;20179;-69
2021/01/12 03:39:35;;;;;;;7.10;4.17;;;-3.20;99.90;;;;;;2072363;28;20186;-69
2021/01/12 03:40:36;;;;;;;10.60;6.30;;;-3.20;99.90;;;;;;2072358;28;20530;-69
2021/01/12 03:41:36;;;;;;;7.30;4.43;;;-3.10;99.90;;;;;;2072631;28;20202;-69
2021/01/12 03:42:38;;;;;;;11.27;6.60;;;-3.20;99.90;;;;;;2073203;28;20582;-68
2021/01/12 03:43:38;;;;;;;7.90;5.18;;;-3.20;99.90;;;;;;2072928;28;20526;-68
2021/01/12 03:44:41;;;;;;;8.03;5.03;;;-3.30;99.90;;;;;;2072759;28;20240;-68
2021/01/12 03:45:42;;;;;;;10.02;5.97;;;-3.30;99.90;;;;;;2072325;28;20212;-69
2021/01/12 03:46:43;;;;;;;9.43;5.73;;;-3.30;99.90;;;;;;2080137;28;20184;-69
2021/01/12 03:47:43;;;;;;;9.53;5.80;;;-3.30;99.90;;;;;;2080834;28;20251;-68
2021/01/12 03:48:44;;;;;;;8.83;5.60;;;-3.40;99.90;;;;;;2080985;28;20205;-69
2021/01/12 03:49:45;;;;;;;9.15;5.85;;;-3.50;99.90;;;;;;2080868;28;20726;-68
2021/01/12 03:50:47;;;;;;;8.57;5.03;;;-3.50;99.90;;;;;;2080604;28;20267;-68
2021/01/12 03:51:48;;;;;;;9.20;5.40;;;-3.40;99.90;;;;;;2080868;28;20177;-69
2021/01/12 03:52:48;;;;;;;9.17;6.07;;;-3.40;99.90;;;;;;2080936;28;20263;-69
2021/01/12 03:53:49;;;;;;;9.27;5.20;;;-3.40;99.90;;;;;;2081081;28;20431;-68
2021/01/12 03:54:50;;;;;;;9.13;5.47;;;-3.40;99.90;;;;;;2080854;28;20181;-69
2021/01/12 03:55:51;;;;;;;6.93;4.73;;;-3.40;99.90;;;;;;2080368;28;20197;-69
2021/01/12 03:56:51;;;;;;;9.20;5.40;;;-3.30;99.90;;;;;;2071966;28;20181;-68
2021/01/12 03:57:52;;;;;;;9.00;5.23;;;-3.30;99.90;;;;;;2080300;28;20177;-69
2021/01/12 03:58:53;;;;;;;13.33;6.97;;;-3.20;99.90;;;;;;2081032;28;20181;-69
2021/01/12 03:59:53;;;;;;;11.20;6.00;;;-3.10;99.90;;;;;;2080345;28;20616;-68
2021/01/12 04:00:54;;;;;;;8.03;5.40;;;-3.10;99.90;;;;;;2071973;28;20237;-68
2021/01/12 04:01:55;;;;;;;10.13;5.77;;;-3.20;99.90;;;;;;2080296;28;20209;-70
2021/01/12 04:02:55;;;;;;;10.10;5.63;;;-3.20;99.90;;;;;;2080200;28;20349;-68
2021/01/12 04:03:57;;;;;;;8.50;5.20;;;-3.20;99.90;;;;;;2080203;28;20658;-68
2021/01/12 04:04:58;;;;;;;7.47;4.18;;;-3.10;99.90;;;;;;2080518;28;20178;-69
2021/01/12 04:06:11;;;;;;;10.63;5.80;;;-3.10;99.90;;;;;;2080260;28;20185;-68
2021/01/12 04:07:12;;;;;;;9.60;5.45;;;-3.10;99.90;;;;;;2080709;28;20248;-69
2021/01/12 04:08:12;;;;;;;10.10;5.87;;;-3.10;99.90;;;;;;2080754;28;20672;-69
2021/01/12 04:09:13;;;;;;;8.73;5.03;;;-3.00;99.90;;;;;;2080176;28;20201;-69
2021/01/12 04:10:14;;;;;;;5.27;3.63;;;-3.00;99.90;;;;;;2080324;28;20215;-69
2021/01/12 04:11:18;;;;;;;6.43;3.93;;;-3.00;99.90;;;;;;2080100;28;20614;-69
2021/01/12 04:12:19;;;;;;;6.00;3.67;;;-2.80;99.90;;;;;;2080219;28;20208;-70
2021/01/12 04:13:19;;;;;;;3.83;2.60;;;-2.70;99.90;;;;;;2080876;28;20190;-69
2021/01/12 04:14:20;;;;;;;9.70;5.17;;;-2.50;99.90;;;;;;2080833;28;20656;-69
2021/01/12 04:15:21;;;;;;;8.03;4.87;;;-2.40;99.90;;;;;;2080922;28;20174;-69
2021/01/12 04:16:25;;;;;;;10.50;6.00;;;-2.40;99.90;;;;;;2080227;28;20173;-69
2021/01/12 04:17:26;;;;;;;7.13;3.83;;;-2.60;99.90;;;;;;2080167;28;20201;-69
2021/01/12 04:18:26;;;;;;;5.97;4.20;;;-2.70;99.90;;;;;;2080625;28;20185;-68
2021/01/12 04:19:27;;;;;;;7.13;4.40;;;-2.60;99.90;;;;;;2080770;28;20177;-68
2021/01/12 04:20:27;;;;;;;5.50;3.50;;;-2.60;99.90;;;;;;2080147;28;20668;-69
2021/01/12 04:21:28;;;;;;;6.83;4.03;;;-2.50;99.90;;;;;;2080024;28;20186;-68
2021/01/12 04:22:29;;;;;;;8.37;4.37;;;-2.40;99.90;;;;;;2080641;28;20175;-69
2021/01/12 04:23:30;;;;;;;6.23;4.40;;;-2.30;99.90;;;;;;2082283;28;20177;-68
2021/01/12 04:24:31;;;;;;;6.57;3.78;;;-2.30;99.90;;;;;;2082302;28;20278;-69
2021/01/12 04:25:35;;;;;;;7.37;4.50;;;-2.20;99.90;;;;;;2082280;28;20184;-69
2021/01/12 04:26:36;;;;;;;6.32;3.75;;;-2.10;99.90;;;;;;2082223;28;20625;-68
2021/01/12 04:27:37;;;;;;;4.43;2.97;;;-2.10;99.90;;;;;;2082449;28;20300;-68
2021/01/12 04:28:37;;;;;;;5.50;3.63;;;-2.00;99.90;;;;;;2082110;28;20215;-67
2021/01/12 04:29:38;;;;;;;4.07;2.67;;;-1.90;99.90;;;;;;2082145;28;20202;-67
2021/01/12 04:30:39;;;;;;;4.20;2.90;;;-1.80;99.90;;;;;;2082163;28;20174;-67
2021/01/12 04:31:39;;;;;;;4.43;2.93;;;-1.70;99.90;;;;;;2082177;28;20213;-67
2021/01/12 04:32:40;;;;;;;5.63;3.10;;;-1.60;99.90;;;;;;2082202;28;20238;-68
2021/01/12 04:33:41;;;;;;;4.50;2.33;;;-1.50;99.90;;;;;;2082288;28;20788;-68
2021/01/12 04:34:41;;;;;;;3.23;2.23;;;-1.40;99.90;;;;;;2082009;28;20596;-68
2021/01/12 04:35:42;;;;;;;2.93;2.30;;;-1.30;99.90;;;;;;2081691;28;20181;-68
2021/01/12 04:36:43;;;;;;;1.87;1.43;;;-1.20;99.90;;;;;;2081548;28;20219;-68
2021/01/12 04:37:43;;;;;;;2.40;1.67;;;-1.20;99.90;;;;;;2081758;28;20179;-68
2021/01/12 04:38:44;;;;;;;2.20;1.30;;;-1.00;99.90;;;;;;2081612;28;20638;-68
2021/01/12 04:39:45;;;;;;;3.23;2.00;;;-0.90;99.90;;;;;;2082156;28;20313;-67
2021/01/12 04:40:46;;;;;;;3.43;2.97;;;-0.80;99.90;;;;;;2082221;28;20187;-68
2021/01/12 04:41:46;;;;;;;1.27;1.07;;;-0.80;99.90;;;;;;2082323;28;20677;-68
2021/01/12 04:42:47;;;;;;;2.47;1.20;;;-0.70;99.90;;;;;;2082122;28;20716;-68
2021/01/12 04:43:48;;;;;;;2.17;1.37;;;-0.60;99.90;;;;;;2082072;28;20258;-69
2021/01/12 04:44:49;;;;;;;1.87;1.10;;;-0.60;99.90;;;;;;2081212;28;20266;-68
2021/01/12 04:45:49;;;;;;;1.50;1.30;;;-0.60;99.90;;;;;;2081628;28;20246;-67
2021/01/12 04:46:50;;;;;;;2.17;1.40;;;-0.50;99.90;;;;;;2081297;28;20191;-68
2021/01/12 04:47:51;;;;;;;1.80;1.30;;;-0.50;99.90;;;;;;2081418;28;20673;-67
2021/01/12 04:48:51;;;;;;;2.33;1.17;;;-0.50;99.90;;;;;;2081709;28;20179;-68
2021/01/12 04:49:53;;;;;;;1.50;1.30;;;-0.50;99.90;;;;;;2081390;28;20285;-68
2021/01/12 04:51:06;;;;;;;1.00;0.82;;;-0.40;99.90;;;;;;2081193;28;20225;-68
2021/01/12 04:52:07;;;;;;;1.00;0.90;;;-0.40;99.90;;;;;;2081686;28;20184;-68
2021/01/12 04:53:08;;;;;;;1.58;1.00;;;-0.30;99.90;;;;;;2082049;28;20184;-68
2021/01/12 04:54:09;;;;;;;1.30;1.20;;;-0.40;99.90;;;;;;2081996;28;20189;-68
2021/01/12 04:55:11;;;;;;;2.13;1.40;;;-0.40;99.90;;;;;;2082295;28;20181;-69
2021/01/12 04:56:16;;;;;;;2.42;1.50;;;-0.30;99.90;;;;;;2081979;28;20238;-69
2021/01/12 04:57:17;;;;;;;1.70;1.33;;;-0.30;99.90;;;;;;2081450;28;20228;-69
2021/01/12 04:58:17;;;;;;;1.70;1.20;;;-0.30;99.90;;;;;;2073341;28;20573;-68
2021/01/12 04:59:34;;;;;;;2.03;1.43;;;-0.30;99.90;;;;;;2081584;28;20184;-68
2021/01/12 05:00:37;;;;;;;3.10;2.15;;;-0.30;99.90;;;;;;2081646;28;20168;-68
2021/01/12 05:01:37;;;;;;;3.95;2.15;;;-0.20;99.90;;;;;;2081041;28;20234;-69
2021/01/12 05:02:39;;;;;;;2.37;1.67;;;-0.30;99.90;;;;;;2081592;28;20180;-69
2021/01/12 05:03:46;;;;;;;3.75;2.53;;;-0.30;99.90;;;;;;2073441;28;20204;-69
2021/01/12 05:04:50;;;;;;;3.63;2.55;;;-0.30;99.90;;;;;;2081688;28;20662;-68
2021/01/12 05:05:53;;;;;;;2.40;1.90;;;-0.20;99.90;;;;;;2082214;28;20184;-68
2021/01/12 05:06:54;;;;;;;1.27;1.15;;;-0.20;99.90;;;;;;2081387;28;20219;-68
2021/01/12 05:08:00;;;;;;;2.78;1.95;;;-0.20;99.90;;;;;;2081499;28;20192;-68
2021/01/12 05:09:01;;;;;;;2.67;2.08;;;-0.20;99.90;;;;;;2079091;28;20187;-68
2021/01/12 05:10:08;;;;;;;2.08;1.35;;;-0.20;99.90;;;;;;2081365;28;20235;-68
2021/01/12 05:11:09;;;;;;;1.75;1.40;;;-0.10;99.90;;;;;;2073885;28;20369;-69
2021/01/12 05:12:12;;;;;;;1.77;1.45;;;-0.10;99.90;;;;;;2073182;28;20191;-68
2021/01/12 05:13:13;;;;;;;1.70;1.05;;;-0.10;99.90;;;;;;2081533;28;20266;-68
2021/01/12 05:14:16;;;;;;;1.50;1.30;;;-0.10;99.90;;;;;;2073080;28;20184;-68
2021/01/12 05:15:19;;;;;;;1.30;1.20;;;-0.10;99.90;;;;;;2073454;28;20189;-68
2021/01/12 05:16:24;;;;;;;1.65;1.40;;;-0.10;99.90;;;;;;2073316;28;20219;-67
2021/01/12 05:17:32;;;;;;;1.27;1.10;;;-0.10;99.90;;;;;;2073601;28;20204;-68
2021/01/12 05:18:39;;;;;;;2.60;1.90;;;-0.10;99.90;;;;;;2081379;28;20175;-68
2021/01/12 05:19:41;;;;;;;3.15;2.22;;;-0.10;99.90;;;;;;2082072;28;20202;-68
2021/01/12 05:20:49;;;;;;;1.23;1.13;;;-0.10;99.90;;;;;;2081824;28;20176;-68
2021/01/12 05:21:50;;;;;;;2.03;1.83;;;0.00;99.90;;;;;;2081252;28;20184;-70